Aeroporto :
LOGIN :

Iscrizione | Disclaimer

   EN    FR    IT 

 










Sommario :    VFR   VFR Marginale   IFR   IFR Intensivo   IFR Molto Intensivo
Visibilità : 
Base nubi : 
>= 8 km
>= 3000ft
5 / 8 km
1000 / 3000 ft
1500m / 5 km
500 / 1000 ft
800 / 1500m
200 / 500 ft
< 800m
< 200 ft
Simboli :   Temporali  Nebbia  Neve Forte  Precipitazioni Forti  Vento > 20 kt
SIGMETs :   Varie  Temporali  Ghiacco  Turbolenza  Onda orograficha  Ceneri Vulcaniche







- Altitudine del aeroporto : 1202 ft
- Codice IATA : IGS


ETSI - Ingolstadt

ULTIMO METAR :
  • 261520Z 26013KT 9999 BKN017 BKN028 08/05 Q1016 WHT

METARs OBSOLETI :
  • 261420Z 28013KT 9999 -RADZ SCT014 BKN025 08/06 Q1016 BLU
  • 261320Z 28015KT 9999 -RA SCT022 BKN027 09/05 Q1015 BLU

TAF TAF ETSI
Valido dal 26 a 11 ore il 26 a 20 ore UTC


261015Z 2611/2620 29015G25KT 9999 NSW BKN050 BKN100 BKN240
TEMPO 2613/2620 29010G20KT 7000 -RA FEW010 BKN020 OVC080 CANCEL 1100
Nessun NOTAM noto per questo aeroporto.
1 SIGMET conosciuto per la FIR München (EDMM) :
 
Turbolenza severa
EDMM SIGMET 2 VALID 261413/261600 EDZF
EDMM MUNCHEN FIR SEV TURB FCST WI N4808 E01038 - N4807 E01209 - N4739 E01207 - N4727 E01107 - N4736 E01037 - N4736 E01038 - N4808 E01038 FL200/280 MOV E WKN=



MetMap, La meteo Aeronautica in un colpo d'occhio ! - Copyright ORBIFLY Dicembre 2007 - Disclaimer

ORBIFLY MET'MAP TEAM :

Programmazione e sviluppo : Alexandra Zaïnal
Concezione e sviluppo : Baudouin d'Aumeries
Co-Programmazione e sviluppo : Marc-Olivier Méhu
Supporto tecnico e logistico : Manuel Goepfert
Aiuto per la traduzione : Arnaldo La Scala

Contatto : metmap@orbifly.com




FONTI E CREDITI :

   NOAA